Copenhagen, Louisiana
Current Conditions -  °F | °C
As of 2:46 AM on Friday 24 Oct 2014 (Local Time) from KMLU Reporting Station
Haze Haze  
Wind Chill: 47°   Ceiling: Unl
Heat Index: 47°   Visibility: 1.2mi
Dew Point: 45°   Wind: 3mph
Humidity: 93%   Direction: 60°ENE
Pressure: 30.16"   Gusts: NA
Location:  32.1631°N, 92.1971°W
Report Text: KMLU 240746Z AUTO 06003KT 1 1/4SM BR FEW002 08/07 A3016 RMK AO2 T00830072
Loading
Personal Weather Stations






























Interactive Weather Map
Tropical Storm Tracking
New forecast layout! Learn more

10-Day Weather Forecast

Advertisements
Track Severe Weather on mobile